Time;durP1;ratioP1;P1;durP2;ratioP2;P2;SDS_P1;SDS_P2;PMS_P1;PMS_P2;Temp;Humidity;BMP_temperature;BMP_pressure;BME280_temperature;BME280_humidity;BME280_pressure;Samples;Min_cycle;Max_cycle;Signal;HPM_P1;HPM_P2
2023/10/22 00:00:07;;;;;;;1.88;1.73;;;;;;;;;;4921254;29;20213;-66
2023/10/22 00:02:41;;;;;;;2.50;1.63;;;;;;;;;;4920303;29;20197;-65
2023/10/22 00:05:10;;;;;;;2.28;2.00;;;;;;;;;;4921009;29;20679;-65
2023/10/22 00:07:38;;;;;;;4.38;2.25;;;;;;;;;;4922011;29;20224;-65
2023/10/22 00:10:06;;;;;;;5.68;2.00;;;;;;;;;;4921418;29;20244;-64
2023/10/22 00:12:35;;;;;;;2.38;1.70;;;;;;;;;;4921893;29;20546;-65
2023/10/22 00:15:03;;;;;;;1.92;1.80;;;;;;;;;;4921198;29;20245;-65
2023/10/22 00:17:33;;;;;;;1.73;1.55;;;;;;;;;;4921553;29;20232;-65
2023/10/22 00:20:02;;;;;;;1.90;1.80;;;;;;;;;;4921192;29;20268;-66
2023/10/22 00:22:31;;;;;;;5.60;1.73;;;;;;;;;;4921775;29;20219;-65
2023/10/22 00:24:59;;;;;;;6.97;1.63;;;;;;;;;;4921569;29;20558;-65
2023/10/22 00:27:27;;;;;;;2.17;2.05;;;;;;;;;;4935647;29;20716;-65
2023/10/22 00:29:55;;;;;;;5.93;1.95;;;;;;;;;;4921122;29;20209;-65
2023/10/22 00:32:24;;;;;;;2.72;1.95;;;;;;;;;;4921402;29;20216;-65
2023/10/22 00:34:52;;;;;;;6.75;1.80;;;;;;;;;;4920920;29;20213;-64
2023/10/22 00:37:23;;;;;;;3.90;2.00;;;;;;;;;;4919580;29;20233;-67
2023/10/22 00:39:52;;;;;;;4.28;1.65;;;;;;;;;;4917536;29;20640;-66
2023/10/22 00:42:20;;;;;;;3.45;1.60;;;;;;;;;;4933059;29;20213;-66
2023/10/22 00:44:48;;;;;;;5.45;2.38;;;;;;;;;;4931952;29;20618;-66
2023/10/22 00:47:17;;;;;;;2.90;1.95;;;;;;;;;;4918526;29;20760;-65
2023/10/22 00:49:45;;;;;;;4.10;1.88;;;;;;;;;;4917970;29;20209;-65
2023/10/22 00:52:14;;;;;;;2.83;2.13;;;;;;;;;;4918149;29;20205;-65
2023/10/22 00:54:47;;;;;;;2.08;1.88;;;;;;;;;;4932446;29;20657;-66
2023/10/22 00:57:15;;;;;;;1.98;1.60;;;;;;;;;;4918221;29;20214;-66
2023/10/22 00:59:44;;;;;;;3.63;1.40;;;;;;;;;;4918047;29;20213;-66
2023/10/22 01:02:12;;;;;;;5.05;1.92;;;;;;;;;;4916977;29;20209;-65
2023/10/22 01:04:41;;;;;;;2.85;1.98;;;;;;;;;;4916852;29;20209;-65
2023/10/22 01:07:09;;;;;;;1.98;1.50;;;;;;;;;;4917674;29;20215;-65
2023/10/22 01:09:37;;;;;;;1.88;1.77;;;;;;;;;;4917825;29;20209;-66
2023/10/22 01:12:09;;;;;;;2.53;1.77;;;;;;;;;;4917607;29;20210;-65
2023/10/22 01:14:37;;;;;;;4.28;2.17;;;;;;;;;;4917792;29;20202;-65
2023/10/22 01:17:05;;;;;;;2.70;1.90;;;;;;;;;;4917556;29;20272;-66
2023/10/22 01:19:33;;;;;;;2.28;1.67;;;;;;;;;;4917930;29;20209;-66
2023/10/22 01:22:01;;;;;;;2.60;1.70;;;;;;;;;;4917360;29;20590;-66
2023/10/22 01:24:34;;;;;;;2.03;1.65;;;;;;;;;;4917663;29;20551;-66
2023/10/22 01:27:02;;;;;;;2.50;2.40;;;;;;;;;;4932003;29;20264;-66
2023/10/22 01:29:31;;;;;;;3.25;1.75;;;;;;;;;;4916435;29;20275;-66
2023/10/22 01:31:59;;;;;;;5.43;2.00;;;;;;;;;;4931824;29;20284;-65
2023/10/22 01:34:28;;;;;;;3.13;1.77;;;;;;;;;;4924295;29;20213;-65
2023/10/22 01:36:56;;;;;;;2.10;1.77;;;;;;;;;;4915636;29;20221;-65
2023/10/22 01:39:25;;;;;;;5.72;1.88;;;;;;;;;;4919787;29;20216;-65
2023/10/22 01:41:54;;;;;;;4.47;1.85;;;;;;;;;;4916801;29;20594;-65
2023/10/22 01:44:22;;;;;;;5.45;1.83;;;;;;;;;;4917695;29;20585;-65
2023/10/22 01:46:51;;;;;;;3.28;1.65;;;;;;;;;;4935522;29;20208;-65
2023/10/22 01:49:19;;;;;;;5.95;1.80;;;;;;;;;;4935980;29;20215;-66
2023/10/22 01:51:48;;;;;;;5.80;2.28;;;;;;;;;;4935771;29;20204;-66
2023/10/22 01:54:17;;;;;;;6.65;2.17;;;;;;;;;;4936078;29;20547;-66
2023/10/22 01:56:46;;;;;;;4.53;2.45;;;;;;;;;;4934434;29;20213;-66
2023/10/22 01:59:15;;;;;;;9.32;2.10;;;;;;;;;;4934613;29;20228;-66
2023/10/22 02:01:43;;;;;;;2.72;2.03;;;;;;;;;;4933643;29;20212;-66
2023/10/22 02:04:12;;;;;;;4.13;1.75;;;;;;;;;;4934668;29;20209;-65
2023/10/22 02:06:43;;;;;;;2.80;1.77;;;;;;;;;;4935570;29;20268;-65
2023/10/22 02:09:11;;;;;;;2.58;2.35;;;;;;;;;;4935901;29;20208;-64
2023/10/22 02:11:39;;;;;;;2.72;2.10;;;;;;;;;;4933924;29;20207;-65
2023/10/22 02:14:11;;;;;;;4.60;2.00;;;;;;;;;;4935602;29;20203;-65
2023/10/22 02:16:40;;;;;;;5.18;2.40;;;;;;;;;;4934898;29;20240;-66
2023/10/22 02:19:17;;;;;;;2.65;1.88;;;;;;;;;;4935193;29;20219;-65
2023/10/22 02:21:46;;;;;;;5.50;1.95;;;;;;;;;;4934971;29;20209;-66
2023/10/22 02:24:14;;;;;;;2.45;1.48;;;;;;;;;;4935338;29;20668;-66
2023/10/22 02:26:42;;;;;;;3.92;2.45;;;;;;;;;;4935217;29;20213;-66
2023/10/22 02:29:10;;;;;;;6.38;2.20;;;;;;;;;;4934945;29;20215;-66
2023/10/22 02:31:38;;;;;;;4.28;1.85;;;;;;;;;;4918561;29;20216;-65
2023/10/22 02:34:08;;;;;;;7.15;1.80;;;;;;;;;;4934773;29;20672;-66
2023/10/22 02:36:36;;;;;;;3.17;1.70;;;;;;;;;;4935084;29;20216;-66
2023/10/22 02:39:08;;;;;;;3.17;1.60;;;;;;;;;;4934540;29;20714;-65
2023/10/22 02:41:36;;;;;;;3.47;1.80;;;;;;;;;;4935115;29;20193;-65
2023/10/22 02:44:04;;;;;;;2.20;1.77;;;;;;;;;;4934027;29;20241;-66
2023/10/22 02:46:32;;;;;;;5.28;1.77;;;;;;;;;;4933652;29;20212;-65
2023/10/22 02:49:00;;;;;;;4.50;2.22;;;;;;;;;;4934960;29;20201;-65
2023/10/22 02:51:31;;;;;;;4.10;1.35;;;;;;;;;;4934724;29;20209;-65
2023/10/22 02:53:59;;;;;;;5.22;1.80;;;;;;;;;;4934749;29;20239;-65
2023/10/22 02:56:27;;;;;;;2.92;1.75;;;;;;;;;;4934711;29;20213;-65
2023/10/22 02:58:55;;;;;;;7.30;1.80;;;;;;;;;;4934290;29;20692;-66
2023/10/22 03:01:23;;;;;;;2.70;1.30;;;;;;;;;;4933323;29;21152;-65
2023/10/22 03:03:51;;;;;;;5.35;1.92;;;;;;;;;;4933596;29;20208;-65
2023/10/22 03:06:20;;;;;;;5.65;1.45;;;;;;;;;;4932945;29;20212;-66
2023/10/22 03:08:50;;;;;;;4.75;1.75;;;;;;;;;;4933326;29;20204;-65
2023/10/22 03:11:19;;;;;;;3.08;1.63;;;;;;;;;;4934401;29;20204;-65
2023/10/22 03:13:47;;;;;;;2.25;1.80;;;;;;;;;;4934276;29;20200;-66
2023/10/22 03:16:15;;;;;;;4.32;1.60;;;;;;;;;;4934436;29;20229;-65
2023/10/22 03:18:44;;;;;;;2.45;1.73;;;;;;;;;;4934346;29;20243;-65
2023/10/22 03:21:12;;;;;;;3.92;1.88;;;;;;;;;;4934737;29;20213;-65
2023/10/22 03:23:41;;;;;;;4.22;1.50;;;;;;;;;;4934507;29;20208;-65
2023/10/22 03:26:14;;;;;;;2.22;1.40;;;;;;;;;;4932998;29;20208;-66
2023/10/22 03:28:42;;;;;;;4.78;2.08;;;;;;;;;;4934400;29;20215;-65
2023/10/22 03:31:11;;;;;;;1.38;1.25;;;;;;;;;;4934355;29;20211;-65
2023/10/22 03:33:39;;;;;;;8.70;2.20;;;;;;;;;;4934257;29;20214;-65
2023/10/22 03:36:09;;;;;;;3.25;1.63;;;;;;;;;;4933076;29;20204;-66
2023/10/22 03:38:38;;;;;;;3.47;1.67;;;;;;;;;;4933329;29;20216;-65
2023/10/22 03:41:07;;;;;;;3.85;1.83;;;;;;;;;;4932701;29;20212;-66
2023/10/22 03:43:36;;;;;;;3.72;3.42;;;;;;;;;;4932603;29;20242;-66
2023/10/22 03:46:04;;;;;;;4.60;1.50;;;;;;;;;;4933664;29;20587;-66
2023/10/22 03:48:33;;;;;;;2.03;1.50;;;;;;;;;;4934624;29;20210;-65
2023/10/22 03:51:03;;;;;;;2.83;2.00;;;;;;;;;;4934451;29;20244;-66
2023/10/22 03:53:31;;;;;;;4.50;1.40;;;;;;;;;;4934521;29;20219;-65
2023/10/22 03:56:00;;;;;;;2.97;1.30;;;;;;;;;;4934351;29;20213;-66
2023/10/22 03:58:28;;;;;;;1.67;1.58;;;;;;;;;;4933937;29;20246;-66
2023/10/22 04:00:57;;;;;;;1.98;1.70;;;;;;;;;;4934159;29;20209;-66
2023/10/22 04:03:26;;;;;;;3.08;1.80;;;;;;;;;;4932969;29;21235;-66
2023/10/22 04:05:57;;;;;;;3.42;1.70;;;;;;;;;;4934075;29;20204;-65
2023/10/22 04:08:25;;;;;;;3.50;1.63;;;;;;;;;;4934195;29;20560;-66
2023/10/22 04:10:54;;;;;;;2.08;1.42;;;;;;;;;;4933941;29;20216;-65
2023/10/22 04:13:22;;;;;;;6.50;2.25;;;;;;;;;;4936141;29;20215;-66
2023/10/22 04:15:51;;;;;;;4.45;2.08;;;;;;;;;;4937898;29;20242;-66
2023/10/22 04:18:21;;;;;;;2.15;1.60;;;;;;;;;;4936340;29;20697;-65
2023/10/22 04:20:50;;;;;;;5.65;1.60;;;;;;;;;;4938359;29;20208;-65
2023/10/22 04:23:18;;;;;;;7.20;1.85;;;;;;;;;;4937358;29;20209;-65
2023/10/22 04:25:47;;;;;;;3.33;2.20;;;;;;;;;;4938097;29;20219;-65
2023/10/22 04:28:15;;;;;;;7.57;1.92;;;;;;;;;;4936950;29;20215;-66
2023/10/22 04:30:44;;;;;;;5.00;2.10;;;;;;;;;;4937672;29;20258;-66
2023/10/22 04:33:12;;;;;;;3.58;2.15;;;;;;;;;;4936012;29;20219;-65
2023/10/22 04:35:42;;;;;;;3.25;1.90;;;;;;;;;;4937314;29;20545;-66
2023/10/22 04:38:10;;;;;;;5.55;1.63;;;;;;;;;;4937482;29;20582;-65
2023/10/22 04:40:38;;;;;;;5.57;1.45;;;;;;;;;;4937006;29;20231;-65
2023/10/22 04:43:06;;;;;;;2.17;1.85;;;;;;;;;;4937067;29;20243;-65
2023/10/22 04:45:35;;;;;;;5.90;2.25;;;;;;;;;;4928813;29;20280;-66
2023/10/22 04:48:03;;;;;;;6.85;2.28;;;;;;;;;;4925153;29;20212;-66
2023/10/22 04:50:31;;;;;;;5.80;2.65;;;;;;;;;;4918408;29;20213;-65
2023/10/22 04:53:01;;;;;;;4.13;1.77;;;;;;;;;;4917726;29;20211;-65
2023/10/22 04:55:29;;;;;;;4.35;2.28;;;;;;;;;;4917286;29;20219;-66
2023/10/22 04:57:57;;;;;;;4.55;2.13;;;;;;;;;;4917760;29;20268;-65
2023/10/22 05:00:26;;;;;;;6.70;2.15;;;;;;;;;;4917925;29;20229;-65
2023/10/22 05:02:54;;;;;;;2.22;1.80;;;;;;;;;;4916377;29;20584;-66
2023/10/22 05:05:23;;;;;;;2.40;2.20;;;;;;;;;;4917878;29;20209;-65
2023/10/22 05:07:51;;;;;;;4.40;1.75;;;;;;;;;;4917755;29;20574;-66
2023/10/22 05:10:21;;;;;;;4.43;1.50;;;;;;;;;;4918094;29;20566;-65
2023/10/22 05:12:49;;;;;;;2.17;1.90;;;;;;;;;;4917804;29;20232;-66
2023/10/22 05:15:18;;;;;;;6.78;2.45;;;;;;;;;;4917280;29;20724;-66
2023/10/22 05:17:47;;;;;;;6.97;2.30;;;;;;;;;;4917273;29;20209;-65
2023/10/22 05:20:15;;;;;;;3.33;2.28;;;;;;;;;;4916444;29;20734;-66
2023/10/22 05:22:44;;;;;;;1.90;1.80;;;;;;;;;;4917310;29;20213;-66
2023/10/22 05:25:12;;;;;;;4.25;2.35;;;;;;;;;;4917320;29;20215;-66
2023/10/22 05:27:42;;;;;;;7.50;2.10;;;;;;;;;;4917002;29;20209;-65
2023/10/22 05:30:10;;;;;;;3.65;2.05;;;;;;;;;;4917294;29;20209;-66
2023/10/22 05:32:38;;;;;;;5.30;1.95;;;;;;;;;;4917090;29;20213;-65
2023/10/22 05:35:07;;;;;;;5.70;1.90;;;;;;;;;;4916124;29;20217;-65
2023/10/22 05:37:35;;;;;;;3.42;1.90;;;;;;;;;;4917009;29;20209;-65
2023/10/22 05:40:04;;;;;;;2.65;1.52;;;;;;;;;;4919059;29;20239;-66
2023/10/22 05:42:35;;;;;;;4.53;1.90;;;;;;;;;;4936434;29;20205;-66
2023/10/22 05:45:04;;;;;;;3.30;1.75;;;;;;;;;;4918483;29;20213;-66
2023/10/22 05:47:33;;;;;;;5.35;2.22;;;;;;;;;;4917708;29;20268;-65
2023/10/22 05:50:01;;;;;;;3.03;1.85;;;;;;;;;;4917076;29;20205;-65
2023/10/22 05:52:30;;;;;;;3.50;1.85;;;;;;;;;;4916901;29;20217;-65
2023/10/22 05:54:58;;;;;;;4.53;1.95;;;;;;;;;;4917567;29;20210;-66
2023/10/22 05:57:28;;;;;;;1.92;1.77;;;;;;;;;;4916100;29;20221;-65
2023/10/22 05:59:58;;;;;;;8.80;2.00;;;;;;;;;;4916937;29;20292;-66
2023/10/22 06:02:27;;;;;;;5.70;1.92;;;;;;;;;;4915562;29;20228;-65
2023/10/22 06:04:56;;;;;;;3.83;1.83;;;;;;;;;;4916466;29;20220;-66
2023/10/22 06:07:24;;;;;;;8.18;2.50;;;;;;;;;;4915215;29;20219;-66
2023/10/22 06:09:52;;;;;;;3.85;2.00;;;;;;;;;;4916596;29;20220;-65
2023/10/22 06:12:20;;;;;;;4.40;2.60;;;;;;;;;;4916330;29;20205;-65
2023/10/22 06:14:48;;;;;;;3.83;2.53;;;;;;;;;;4915817;29;20220;-65
2023/10/22 06:17:17;;;;;;;2.95;2.45;;;;;;;;;;4915606;29;20198;-65
2023/10/22 06:19:46;;;;;;;2.95;2.40;;;;;;;;;;4916275;29;20225;-66
2023/10/22 06:22:14;;;;;;;2.58;2.38;;;;;;;;;;4916385;29;20209;-65
2023/10/22 06:24:43;;;;;;;4.70;2.28;;;;;;;;;;4916105;29;20680;-66
2023/10/22 06:27:12;;;;;;;7.90;2.60;;;;;;;;;;4916705;29;20210;-66
2023/10/22 06:29:40;;;;;;;7.30;2.55;;;;;;;;;;4916212;29;20209;-65
2023/10/22 06:32:08;;;;;;;3.67;1.80;;;;;;;;;;4915089;29;20213;-65
2023/10/22 06:34:36;;;;;;;10.18;2.17;;;;;;;;;;4915936;29;20215;-66
2023/10/22 06:37:06;;;;;;;2.65;1.70;;;;;;;;;;4914564;29;20217;-66
2023/10/22 06:39:34;;;;;;;7.70;2.00;;;;;;;;;;4916122;29;20225;-66
2023/10/22 06:42:03;;;;;;;6.28;2.20;;;;;;;;;;4916307;29;20213;-66
2023/10/22 06:44:31;;;;;;;8.88;4.93;;;;;;;;;;4914708;29;20236;-66
2023/10/22 06:46:59;;;;;;;5.78;3.20;;;;;;;;;;4914740;29;20205;-66
2023/10/22 06:49:27;;;;;;;13.88;4.25;;;;;;;;;;4915813;29;20209;-66
2023/10/22 06:51:55;;;;;;;12.20;5.95;;;;;;;;;;4915785;29;20213;-65
2023/10/22 06:54:25;;;;;;;3.95;3.15;;;;;;;;;;4915874;29;20205;-66
2023/10/22 06:56:54;;;;;;;14.48;3.05;;;;;;;;;;4915923;29;20288;-65
2023/10/22 06:59:22;;;;;;;2.40;1.70;;;;;;;;;;4915282;29;20213;-65
2023/10/22 07:01:50;;;;;;;3.88;2.05;;;;;;;;;;4915128;29;20559;-65
2023/10/22 07:04:18;;;;;;;10.07;2.20;;;;;;;;;;4915048;29;20210;-65
2023/10/22 07:06:46;;;;;;;4.63;1.80;;;;;;;;;;4914537;29;20548;-65
2023/10/22 07:09:15;;;;;;;5.40;1.90;;;;;;;;;;4916025;29;20213;-66
2023/10/22 07:11:46;;;;;;;4.22;2.10;;;;;;;;;;4916182;29;20205;-65
2023/10/22 07:14:14;;;;;;;4.88;1.63;;;;;;;;;;4914652;29;20540;-66
2023/10/22 07:16:42;;;;;;;4.82;1.50;;;;;;;;;;4915410;29;20248;-66
2023/10/22 07:19:10;;;;;;;5.78;2.33;;;;;;;;;;4915438;29;20209;-65
2023/10/22 07:21:38;;;;;;;11.45;2.10;;;;;;;;;;4915587;29;20229;-65
2023/10/22 07:24:07;;;;;;;7.03;2.13;;;;;;;;;;4915365;29;20219;-66
2023/10/22 07:26:36;;;;;;;6.80;2.30;;;;;;;;;;4915607;29;20271;-65
2023/10/22 07:29:05;;;;;;;4.50;1.55;;;;;;;;;;4915891;29;20209;-65
2023/10/22 07:31:34;;;;;;;4.72;1.45;;;;;;;;;;4915922;29;20209;-65
2023/10/22 07:34:02;;;;;;;7.45;1.77;;;;;;;;;;4915254;29;20676;-66
2023/10/22 07:36:30;;;;;;;3.50;2.17;;;;;;;;;;4914047;29;20220;-66
2023/10/22 07:38:58;;;;;;;5.45;1.60;;;;;;;;;;4915519;29;20201;-66
2023/10/22 07:41:27;;;;;;;4.40;1.42;;;;;;;;;;4917796;29;20229;-65
2023/10/22 07:43:55;;;;;;;3.08;1.52;;;;;;;;;;4915230;29;20284;-65
2023/10/22 07:46:24;;;;;;;3.75;1.55;;;;;;;;;;4915095;29;20213;-66
2023/10/22 07:48:52;;;;;;;4.43;2.20;;;;;;;;;;4918863;29;20213;-66
2023/10/22 07:51:21;;;;;;;4.20;1.90;;;;;;;;;;4922360;29;20633;-66
2023/10/22 07:53:50;;;;;;;4.67;2.10;;;;;;;;;;4933447;29;20613;-66
2023/10/22 07:56:19;;;;;;;15.23;6.33;;;;;;;;;;4918667;29;20971;-65
2023/10/22 07:58:47;;;;;;;3.57;1.57;;;;;;;;;;4933760;29;20588;-65
2023/10/22 08:01:15;;;;;;;1.83;1.17;;;;;;;;;;4932736;29;20657;-65
2023/10/22 08:03:45;;;;;;;4.23;1.77;;;;;;;;;;4917658;29;20613;-65
2023/10/22 08:06:13;;;;;;;8.57;1.70;;;;;;;;;;4933273;29;20629;-66
2023/10/22 08:08:41;;;;;;;8.13;2.27;;;;;;;;;;4918662;29;20615;-66
2023/10/22 08:11:10;;;;;;;8.47;2.83;;;;;;;;;;4919333;29;20617;-65
2023/10/22 08:13:38;;;;;;;7.13;1.90;;;;;;;;;;4917864;29;20617;-66
2023/10/22 08:16:07;;;;;;;6.83;2.50;;;;;;;;;;4918658;29;20972;-66
2023/10/22 08:18:35;;;;;;;6.20;1.67;;;;;;;;;;4918970;29;20624;-65
2023/10/22 08:21:06;;;;;;;8.60;1.87;;;;;;;;;;4933406;29;20657;-66
2023/10/22 08:23:34;;;;;;;6.90;1.80;;;;;;;;;;4919017;29;21091;-65
2023/10/22 08:26:02;;;;;;;9.30;2.00;;;;;;;;;;4933383;29;20613;-65
2023/10/22 08:28:30;;;;;;;4.90;1.80;;;;;;;;;;4933236;29;20656;-65
2023/10/22 08:31:00;;;;;;;5.77;1.40;;;;;;;;;;4932550;29;20692;-66
2023/10/22 08:33:29;;;;;;;7.87;1.60;;;;;;;;;;4918396;29;20621;-65
2023/10/22 08:36:04;;;;;;;8.13;1.77;;;;;;;;;;4918175;29;20618;-65
2023/10/22 08:38:33;;;;;;;4.50;2.20;;;;;;;;;;4918863;29;20556;-66
2023/10/22 08:41:02;;;;;;;7.43;1.53;;;;;;;;;;4918225;29;20671;-66
2023/10/22 08:43:32;;;;;;;9.80;2.37;;;;;;;;;;4918406;29;20637;-66
2023/10/22 08:46:00;;;;;;;3.43;1.80;;;;;;;;;;4918488;29;20991;-66
2023/10/22 08:48:29;;;;;;;4.13;1.80;;;;;;;;;;4918012;29;20590;-65
2023/10/22 08:50:58;;;;;;;3.40;2.50;;;;;;;;;;4918229;29;20629;-65
2023/10/22 08:53:26;;;;;;;11.50;2.33;;;;;;;;;;4917968;29;20633;-65
2023/10/22 08:55:58;;;;;;;14.13;2.33;;;;;;;;;;4917237;29;20629;-66
2023/10/22 08:58:26;;;;;;;5.43;2.03;;;;;;;;;;4916227;29;20602;-65
2023/10/22 09:00:55;;;;;;;7.63;2.10;;;;;;;;;;4917682;29;20661;-65
2023/10/22 09:03:25;;;;;;;4.73;2.03;;;;;;;;;;4916359;29;20617;-65
2023/10/22 09:05:53;;;;;;;6.70;2.07;;;;;;;;;;4917680;29;20621;-65
2023/10/22 09:08:22;;;;;;;7.00;1.70;;;;;;;;;;4917433;29;20608;-66
2023/10/22 09:10:50;;;;;;;4.70;1.67;;;;;;;;;;4918190;29;20606;-66
2023/10/22 09:13:22;;;;;;;6.10;1.47;;;;;;;;;;4917465;29;20974;-66
2023/10/22 09:15:51;;;;;;;7.63;1.90;;;;;;;;;;4917427;29;20656;-66
2023/10/22 09:18:20;;;;;;;2.73;1.53;;;;;;;;;;4917497;29;20623;-66
2023/10/22 09:20:49;;;;;;;4.60;1.97;;;;;;;;;;4932048;29;20622;-66
2023/10/22 09:23:18;;;;;;;6.27;1.60;;;;;;;;;;4917682;29;20613;-66
2023/10/22 09:25:47;;;;;;;5.63;1.90;;;;;;;;;;4917398;29;20624;-66
2023/10/22 09:28:20;;;;;;;4.03;1.70;;;;;;;;;;4915413;29;20677;-66
2023/10/22 09:30:49;;;;;;;6.77;2.10;;;;;;;;;;4917272;29;21240;-66
2023/10/22 09:33:21;;;;;;;4.23;1.60;;;;;;;;;;4917846;29;20617;-66
2023/10/22 09:36:10;;;;;;;12.33;1.73;;;;;;;;;;4917161;29;20597;-66
2023/10/22 09:38:42;;;;;;;7.33;2.33;;;;;;;;;;4913710;29;21069;-65
2023/10/22 09:41:12;;;;;;;8.93;1.87;;;;;;;;;;4916743;29;20637;-65
2023/10/22 09:43:40;;;;;;;6.63;1.90;;;;;;;;;;4934039;29;20675;-66
2023/10/22 09:46:10;;;;;;;4.90;1.83;;;;;;;;;;4930209;29;20625;-66
2023/10/22 09:48:39;;;;;;;2.80;2.20;;;;;;;;;;4917266;29;20683;-66
2023/10/22 09:51:08;;;;;;;8.97;2.27;;;;;;;;;;4916458;29;20640;-66
2023/10/22 09:53:40;;;;;;;8.10;3.13;;;;;;;;;;4934900;29;20631;-66
2023/10/22 09:56:09;;;;;;;3.10;2.07;;;;;;;;;;4935812;29;20592;-66
2023/10/22 09:58:43;;;;;;;7.30;2.07;;;;;;;;;;4936213;29;20623;-65
2023/10/22 10:01:13;;;;;;;7.10;2.10;;;;;;;;;;4935390;29;20643;-65
2023/10/22 10:03:42;;;;;;;7.07;2.20;;;;;;;;;;4934974;29;20603;-66
2023/10/22 10:06:11;;;;;;;6.70;2.70;;;;;;;;;;4935921;29;20635;-66
2023/10/22 10:08:40;;;;;;;3.70;2.10;;;;;;;;;;4936053;29;20635;-66
2023/10/22 10:11:09;;;;;;;6.00;2.23;;;;;;;;;;4935829;29;20583;-66
2023/10/22 10:13:37;;;;;;;7.03;2.00;;;;;;;;;;4936119;29;20613;-65
2023/10/22 10:16:06;;;;;;;5.43;2.47;;;;;;;;;;4935208;29;20656;-66
2023/10/22 10:18:53;;;;;;;7.73;2.70;;;;;;;;;;4934890;29;20621;-66
2023/10/22 10:21:39;;;;;;;4.13;2.57;;;;;;;;;;4935116;29;20636;-66
2023/10/22 10:24:23;;;;;;;7.17;2.57;;;;;;;;;;4935956;29;20651;-66
2023/10/22 10:26:55;;;;;;;4.80;2.80;;;;;;;;;;4934191;29;20643;-66
2023/10/22 10:29:23;;;;;;;4.60;3.17;;;;;;;;;;4918677;29;20577;-67
2023/10/22 10:31:53;;;;;;;8.97;3.27;;;;;;;;;;4935921;29;20613;-66
2023/10/22 10:34:27;;;;;;;4.77;2.80;;;;;;;;;;4934590;29;20612;-66
2023/10/22 10:36:58;;;;;;;9.60;2.93;;;;;;;;;;4934293;29;21131;-66
2023/10/22 10:39:42;;;;;;;6.20;3.00;;;;;;;;;;4935411;29;20984;-66
2023/10/22 10:42:11;;;;;;;10.30;3.67;;;;;;;;;;4935669;29;20631;-66
2023/10/22 10:44:57;;;;;;;8.63;2.87;;;;;;;;;;4925596;29;20730;-66
2023/10/22 10:47:32;;;;;;;9.53;4.17;;;;;;;;;;4935998;29;20583;-67
2023/10/22 10:50:02;;;;;;;8.53;3.27;;;;;;;;;;4934507;29;20624;-66
2023/10/22 10:52:32;;;;;;;7.33;3.43;;;;;;;;;;4936427;29;20596;-66
2023/10/22 10:55:01;;;;;;;14.27;3.50;;;;;;;;;;4935243;29;21186;-66
2023/10/22 10:57:36;;;;;;;6.30;4.07;;;;;;;;;;4935578;29;20621;-67
2023/10/22 11:00:05;;;;;;;5.00;4.50;;;;;;;;;;4935730;29;20584;-66
2023/10/22 11:02:43;;;;;;;15.03;5.53;;;;;;;;;;4934896;29;20662;-67
2023/10/22 11:05:11;;;;;;;8.37;5.10;;;;;;;;;;4935232;29;20600;-67
2023/10/22 11:07:41;;;;;;;5.47;4.97;;;;;;;;;;4935347;29;20615;-67
2023/10/22 11:10:10;;;;;;;5.30;4.80;;;;;;;;;;4933743;29;20639;-66
2023/10/22 11:12:39;;;;;;;5.97;4.60;;;;;;;;;;4934117;29;21166;-66
2023/10/22 11:15:09;;;;;;;9.57;5.47;;;;;;;;;;4935187;29;20699;-67
2023/10/22 11:17:37;;;;;;;11.43;4.80;;;;;;;;;;4935607;29;21137;-67
2023/10/22 11:20:07;;;;;;;10.97;5.70;;;;;;;;;;4935584;29;20620;-66
2023/10/22 11:22:36;;;;;;;6.30;5.70;;;;;;;;;;4935457;29;20663;-66
2023/10/22 11:25:08;;;;;;;10.77;5.80;;;;;;;;;;4936162;29;20698;-66
2023/10/22 11:27:37;;;;;;;8.10;6.70;;;;;;;;;;4935287;29;20608;-66
2023/10/22 11:30:06;;;;;;;10.13;6.03;;;;;;;;;;4918176;29;20617;-66
2023/10/22 11:32:35;;;;;;;9.73;6.33;;;;;;;;;;4936205;29;20621;-66
2023/10/22 11:35:07;;;;;;;6.53;5.87;;;;;;;;;;4933632;29;20619;-66
2023/10/22 11:37:37;;;;;;;10.13;6.17;;;;;;;;;;4935572;29;21036;-66
2023/10/22 11:40:20;;;;;;;6.80;5.80;;;;;;;;;;4935256;29;20576;-67
2023/10/22 11:42:50;;;;;;;7.37;5.30;;;;;;;;;;4934413;29;20676;-66
2023/10/22 11:45:19;;;;;;;9.10;5.57;;;;;;;;;;4929694;29;20640;-67
2023/10/22 11:47:47;;;;;;;6.60;5.97;;;;;;;;;;4934943;29;20624;-67
2023/10/22 11:50:16;;;;;;;9.53;6.20;;;;;;;;;;4935022;29;21362;-66
2023/10/22 11:52:51;;;;;;;7.03;6.30;;;;;;;;;;4930180;29;20687;-66
2023/10/22 11:55:21;;;;;;;8.30;6.27;;;;;;;;;;4935028;29;20588;-66
2023/10/22 11:57:50;;;;;;;6.67;6.17;;;;;;;;;;4934973;29;20625;-67
2023/10/22 12:00:19;;;;;;;10.87;6.13;;;;;;;;;;4934553;29;20643;-67
2023/10/22 12:02:47;;;;;;;7.50;6.13;;;;;;;;;;4934750;29;20668;-66
2023/10/22 12:05:15;;;;;;;7.50;6.50;;;;;;;;;;4933925;29;21224;-67
2023/10/22 12:07:43;;;;;;;7.53;6.93;;;;;;;;;;4934941;29;20744;-65
2023/10/22 12:10:12;;;;;;;7.47;6.87;;;;;;;;;;4934193;29;20608;-65
2023/10/22 12:12:40;;;;;;;8.00;7.20;;;;;;;;;;4934813;29;20625;-65
2023/10/22 12:15:11;;;;;;;7.07;6.33;;;;;;;;;;4933948;29;20651;-65
2023/10/22 12:17:39;;;;;;;7.50;7.00;;;;;;;;;;4934019;29;20665;-65
2023/10/22 12:20:08;;;;;;;7.23;6.83;;;;;;;;;;4933836;29;20976;-65
2023/10/22 12:22:36;;;;;;;7.90;7.30;;;;;;;;;;4933885;29;20670;-65
2023/10/22 12:25:05;;;;;;;7.83;7.30;;;;;;;;;;4932728;29;20623;-65
2023/10/22 12:27:33;;;;;;;8.93;7.33;;;;;;;;;;4934088;29;20635;-65
2023/10/22 12:30:00;;;;;;;8.73;7.83;;;;;;;;;;4934364;29;20620;-65
2023/10/22 12:32:30;;;;;;;8.60;7.90;;;;;;;;;;4933807;29;20635;-65
2023/10/22 12:34:59;;;;;;;8.57;7.70;;;;;;;;;;4936120;29;21178;-65
2023/10/22 12:37:27;;;;;;;8.17;7.40;;;;;;;;;;4936852;29;20694;-65
2023/10/22 12:39:55;;;;;;;9.13;8.33;;;;;;;;;;4937540;29;20622;-65
2023/10/22 12:42:24;;;;;;;8.20;7.40;;;;;;;;;;4937068;29;20664;-65
2023/10/22 12:44:52;;;;;;;9.07;8.13;;;;;;;;;;4936954;29;21256;-65
2023/10/22 12:47:20;;;;;;;9.43;8.50;;;;;;;;;;4937060;29;21208;-65
2023/10/22 12:49:50;;;;;;;7.80;7.40;;;;;;;;;;4937431;29;20617;-65
2023/10/22 12:52:18;;;;;;;8.67;7.80;;;;;;;;;;4936984;29;20698;-65
2023/10/22 12:54:46;;;;;;;7.87;7.27;;;;;;;;;;4937545;29;20634;-64
2023/10/22 12:57:15;;;;;;;9.93;7.73;;;;;;;;;;4937115;29;20628;-65
2023/10/22 12:59:44;;;;;;;7.83;7.23;;;;;;;;;;4937880;29;20628;-65
2023/10/22 13:02:12;;;;;;;8.00;7.40;;;;;;;;;;4936542;29;20612;-66
2023/10/22 13:04:40;;;;;;;7.30;6.90;;;;;;;;;;4936428;29;21171;-65
2023/10/22 13:07:10;;;;;;;8.37;7.73;;;;;;;;;;4936715;29;20616;-64
2023/10/22 13:09:39;;;;;;;7.20;6.80;;;;;;;;;;4936994;29;20622;-65
2023/10/22 13:12:07;;;;;;;7.33;6.93;;;;;;;;;;4936805;29;20724;-64
2023/10/22 13:14:35;;;;;;;8.70;8.00;;;;;;;;;;4938001;29;20609;-64
2023/10/22 13:17:04;;;;;;;7.50;6.90;;;;;;;;;;4937630;29;20585;-65
2023/10/22 13:19:32;;;;;;;8.13;7.43;;;;;;;;;;4937402;29;20616;-65
2023/10/22 13:22:00;;;;;;;7.30;6.80;;;;;;;;;;4936880;29;20626;-65
2023/10/22 13:24:30;;;;;;;7.50;7.00;;;;;;;;;;4935676;29;20662;-65
2023/10/22 13:26:58;;;;;;;9.17;8.43;;;;;;;;;;4935719;29;20604;-65
2023/10/22 13:29:27;;;;;;;10.30;8.80;;;;;;;;;;4936538;29;20631;-65
2023/10/22 13:31:55;;;;;;;7.90;7.10;;;;;;;;;;4936463;29;20628;-64
2023/10/22 13:34:23;;;;;;;7.63;6.93;;;;;;;;;;4935994;29;20620;-65
2023/10/22 13:36:51;;;;;;;7.27;6.77;;;;;;;;;;4936537;29;20998;-65
2023/10/22 13:39:20;;;;;;;10.13;9.20;;;;;;;;;;4936857;29;20624;-65
2023/10/22 13:41:49;;;;;;;8.20;7.40;;;;;;;;;;4936178;29;20612;-65
2023/10/22 13:44:17;;;;;;;8.80;7.50;;;;;;;;;;4936072;29;20679;-65
2023/10/22 13:46:46;;;;;;;7.90;7.30;;;;;;;;;;4935577;29;20632;-65
2023/10/22 13:49:14;;;;;;;7.53;7.10;;;;;;;;;;4936872;29;20618;-65
2023/10/22 13:51:42;;;;;;;6.67;6.30;;;;;;;;;;4935730;29;20620;-65
2023/10/22 13:54:10;;;;;;;7.77;6.80;;;;;;;;;;4926796;29;20636;-65
2023/10/22 13:56:38;;;;;;;8.17;6.70;;;;;;;;;;4916819;29;20629;-65
2023/10/22 13:59:08;;;;;;;6.83;6.13;;;;;;;;;;4917638;29;21220;-65
2023/10/22 14:01:37;;;;;;;6.77;6.37;;;;;;;;;;4916432;29;21204;-65
2023/10/22 14:04:05;;;;;;;10.47;6.73;;;;;;;;;;4916685;29;20721;-65
2023/10/22 14:06:33;;;;;;;6.60;6.10;;;;;;;;;;4916519;29;20617;-65
2023/10/22 14:09:02;;;;;;;9.80;7.17;;;;;;;;;;4917925;29;20625;-65
2023/10/22 14:11:30;;;;;;;6.40;6.03;;;;;;;;;;4916711;29;20621;-65
2023/10/22 14:13:58;;;;;;;7.37;6.67;;;;;;;;;;4924142;29;20681;-65
2023/10/22 14:16:28;;;;;;;7.80;6.70;;;;;;;;;;4926129;29;20736;-66
2023/10/22 14:18:56;;;;;;;6.90;6.40;;;;;;;;;;4925481;29;20725;-67
2023/10/22 14:21:24;;;;;;;8.67;7.53;;;;;;;;;;4925377;29;20681;-66
2023/10/22 14:23:52;;;;;;;8.50;7.47;;;;;;;;;;4926260;29;20748;-66
2023/10/22 14:26:21;;;;;;;8.20;6.80;;;;;;;;;;4925681;29;21042;-66
2023/10/22 14:28:49;;;;;;;7.00;6.30;;;;;;;;;;4926752;29;20684;-66
2023/10/22 14:31:19;;;;;;;8.80;7.27;;;;;;;;;;4924842;29;20712;-66
2023/10/22 14:33:49;;;;;;;7.97;7.37;;;;;;;;;;4925980;29;20680;-66
2023/10/22 14:36:17;;;;;;;7.60;7.10;;;;;;;;;;4926057;29;20716;-66
2023/10/22 14:38:45;;;;;;;7.70;7.00;;;;;;;;;;4926440;29;20689;-66
2023/10/22 14:41:13;;;;;;;8.93;7.00;;;;;;;;;;4926174;29;20700;-67
2023/10/22 14:43:42;;;;;;;7.73;6.70;;;;;;;;;;4924693;29;20721;-67
2023/10/22 14:46:10;;;;;;;7.00;6.33;;;;;;;;;;4941123;29;20705;-67
2023/10/22 14:48:38;;;;;;;8.37;6.50;;;;;;;;;;4932791;29;20707;-66
2023/10/22 14:51:08;;;;;;;6.90;6.27;;;;;;;;;;4945270;29;20707;-65
2023/10/22 14:53:36;;;;;;;6.60;6.10;;;;;;;;;;4944544;29;21414;-67